KGLR/GLR METAR and TAF weather

Enter ICAO airport designator
Station Type Date Time Source
KGLR METAR 2019/11/21 03:53 UTC NOAA

KGLR 210353Z AUTO 18006KT 3SM BR SCT014 OVC021 01/01 A3011 RMK AO2 SLP211 T00110006


Station Type Date Time Source
KGLR Decoded METAR 2019/11/21 03:53 UTC NOAA

GAYLORD REGIONAL AIRPORT, MI, United States (KGLR) 45-01N 84-41W 407M
Nov 20, 2019 - 10:53 PM EST / 2019.11.21 0353 UTC
Wind: from the S (180 degrees) at 7 MPH (6 KT):0
Visibility: 3 mile(s):0
Sky conditions: overcast
Weather: mist
Temperature: 34.0 F (1.1 C)
Windchill: 28 F (-2 C):1
Dew Point: 33.1 F (0.6 C)
Relative Humidity: 96%
Pressure (altimeter): 30.11 in. Hg (1019 hPa)
ob: KGLR 210353Z AUTO 18006KT 3SM BR SCT014 OVC021 01/01 A3011 RMK AO2 SLP211 T00110006
cycle: 4

Station Type Date Time Source
KGLR TAF UTC NOAA

Error!

Example: see airport list